Terminal Aerodrome Forecast
Issued by NWS

Home | Current Version | Previous Version | Text Only | Print | Product List | Glossary On
Versions: 1 2 3 4 5 6 7 8 9 10 11 12 13 14 15 16 17 18 19 20 21 22 23 24 25 26 27 28 29 30 31 32 33 34 35 36 37 38 39 40 41 42 43 44 45 46 47 48
170
FTUS45 KBOU 210526
TAFAPA
TAF
KAPA 210526Z 2106/2206 17007KT P6SM FEW120 BKN200
     FM210720 36013G23KT P6SM SCT080 BKN120
     FM210830 04010KT P6SM FEW080 SCT120 BKN180
     FM211000 06010KT P6SM SCT080 BKN120
     FM211600 31014G22KT P6SM FEW100
     FM220000 29010KT P6SM FEW100
     FM220400 18011KT P6SM FEW220=

USA.gov is the U.S. government's official web portal to all federal, state and local government web resources and services.